createdAt,value
2023-02-12T00:01:35.065Z,5.62
2023-02-12T00:04:03.750Z,5.63
2023-02-12T00:06:32.124Z,5.63
2023-02-12T00:09:00.847Z,5.64
2023-02-12T00:11:30.090Z,5.64
2023-02-12T00:13:59.266Z,5.65
2023-02-12T00:16:29.328Z,5.65
2023-02-12T00:18:58.885Z,5.67
2023-02-12T00:21:27.862Z,5.66
2023-02-12T00:23:57.124Z,5.67
2023-02-12T00:26:25.663Z,5.66
2023-02-12T00:28:55.412Z,5.67
2023-02-12T00:31:29.789Z,5.67
2023-02-12T00:34:00.033Z,5.67
2023-02-12T00:36:31.373Z,5.67
2023-02-12T00:39:00.359Z,5.67
2023-02-12T00:41:29.366Z,5.67
2023-02-12T00:43:58.133Z,5.66
2023-02-12T00:46:26.509Z,5.65
2023-02-12T00:48:54.880Z,5.64
2023-02-12T00:51:23.335Z,5.63
2023-02-12T00:53:51.756Z,5.62
2023-02-12T00:56:20.081Z,5.62
2023-02-12T00:58:48.416Z,5.62
2023-02-12T01:01:17.140Z,5.62
2023-02-12T01:03:45.418Z,5.61
2023-02-12T01:06:13.832Z,5.61
2023-02-12T01:08:42.175Z,5.59
2023-02-12T01:11:13.778Z,5.58
2023-02-12T01:13:42.200Z,5.57
2023-02-12T01:16:24.056Z,5.56
2023-02-12T01:18:55.925Z,5.55
2023-02-12T01:21:29.078Z,5.53
2023-02-12T01:23:58.394Z,5.50
2023-02-12T01:26:29.214Z,5.47
2023-02-12T01:29:01.618Z,5.45
2023-02-12T01:31:34.608Z,5.43
2023-02-12T01:34:04.290Z,5.42
2023-02-12T01:36:32.671Z,5.43
2023-02-12T01:39:03.041Z,5.45
2023-02-12T01:41:39.974Z,5.49
2023-02-12T01:44:22.026Z,5.54
2023-02-12T01:47:05.725Z,5.58
2023-02-12T01:49:40.445Z,5.62
2023-02-12T01:52:27.465Z,5.66
2023-02-12T01:55:00.507Z,5.70
2023-02-12T01:57:33.284Z,5.73
2023-02-12T02:00:07.469Z,5.76
2023-02-12T02:02:39.190Z,5.79
2023-02-12T02:05:08.024Z,5.81
2023-02-12T02:07:36.384Z,5.83
2023-02-12T02:10:05.599Z,5.84
2023-02-12T02:12:53.822Z,5.85
2023-02-12T02:15:22.261Z,5.85
2023-02-12T02:18:01.099Z,5.85
2023-02-12T02:20:58.226Z,5.85
2023-02-12T02:24:06.003Z,5.85
2023-02-12T02:26:50.337Z,5.85
2023-02-12T02:30:08.958Z,5.84
2023-02-12T02:32:46.337Z,5.83
2023-02-12T02:35:26.519Z,5.82
2023-02-12T02:38:06.118Z,5.83
2023-02-12T02:40:53.493Z,5.83
2023-02-12T02:43:30.750Z,5.84
2023-02-12T02:46:12.124Z,5.84
2023-02-12T02:48:48.078Z,5.85
2023-02-12T02:51:24.992Z,5.86
2023-02-12T02:54:07.720Z,5.86
2023-02-12T02:56:43.408Z,5.88
2023-02-12T02:59:18.888Z,5.88
2023-02-12T03:02:04.111Z,5.89
2023-02-12T03:04:41.497Z,5.89
2023-02-12T03:07:26.890Z,5.89
2023-02-12T03:10:27.297Z,5.91
2023-02-12T03:13:09.752Z,5.92
2023-02-12T03:15:46.507Z,5.93
2023-02-12T03:18:25.545Z,5.94
2023-02-12T03:21:13.670Z,5.96
2023-02-12T03:23:59.053Z,5.97
2023-02-12T03:26:46.799Z,6.01
2023-02-12T03:29:15.200Z,6.03
2023-02-12T03:32:06.296Z,6.04
2023-02-12T03:35:06.883Z,6.06
2023-02-12T03:37:56.794Z,6.08
2023-02-12T03:40:39.870Z,6.10
2023-02-12T03:43:25.785Z,6.11
2023-02-12T03:46:05.981Z,6.11
2023-02-12T03:49:08.230Z,6.11
2023-02-12T03:51:40.642Z,6.11
2023-02-12T03:54:12.765Z,6.13
2023-02-12T03:56:52.167Z,6.13
2023-02-12T03:59:23.066Z,6.14
2023-02-12T04:01:57.605Z,6.14
2023-02-12T04:04:27.095Z,6.13
2023-02-12T04:06:56.157Z,6.13
2023-02-12T04:09:27.839Z,6.12
2023-02-12T04:12:30.021Z,6.12
2023-02-12T04:15:18.678Z,6.13
2023-02-12T04:18:19.245Z,6.12
2023-02-12T04:21:31.845Z,6.13
2023-02-12T04:24:17.283Z,6.13
2023-02-12T04:26:55.422Z,6.12
2023-02-12T04:29:50.637Z,6.12
2023-02-12T04:32:31.746Z,6.15
2023-02-12T04:35:17.943Z,6.16
2023-02-12T04:37:55.359Z,6.17
2023-02-12T04:40:24.390Z,6.18
2023-02-12T04:42:53.763Z,6.19
2023-02-12T04:45:28.002Z,6.20
2023-02-12T04:47:57.434Z,6.20
2023-02-12T04:50:26.970Z,6.20
2023-02-12T04:52:55.334Z,6.21
2023-02-12T04:55:23.664Z,6.22
2023-02-12T04:57:52.032Z,6.23
2023-02-12T05:00:20.752Z,6.23
2023-02-12T05:02:49.449Z,6.23
2023-02-12T05:05:18.477Z,6.22
2023-02-12T05:07:46.814Z,6.22
2023-02-12T05:10:15.550Z,6.22
2023-02-12T05:12:43.896Z,6.22
2023-02-12T05:15:12.235Z,6.21
2023-02-12T05:17:40.634Z,6.22
2023-02-12T05:20:10.557Z,6.21
2023-02-12T05:22:42.069Z,6.20
2023-02-12T05:25:11.701Z,6.20
2023-02-12T05:27:40.078Z,6.20
2023-02-12T05:30:09.608Z,6.21
2023-02-12T05:32:37.995Z,6.20
2023-02-12T05:35:07.291Z,6.20
2023-02-12T05:37:36.783Z,6.19
2023-02-12T05:40:06.811Z,6.18
2023-02-12T05:42:35.219Z,6.17
2023-02-12T05:45:03.922Z,6.18
2023-02-12T05:47:32.314Z,6.18
2023-02-12T05:50:01.119Z,6.18
2023-02-12T05:52:29.506Z,6.19
2023-02-12T05:54:57.842Z,6.17
2023-02-12T05:57:26.189Z,6.17
2023-02-12T05:59:54.646Z,6.17
2023-02-12T06:02:23.008Z,6.17
2023-02-12T06:04:51.500Z,6.17
2023-02-12T06:07:19.891Z,6.17
2023-02-12T06:09:48.246Z,6.17
2023-02-12T06:12:16.716Z,6.17
2023-02-12T06:14:45.083Z,6.17
2023-02-12T06:17:13.686Z,6.18
2023-02-12T06:19:41.997Z,6.17
2023-02-12T06:22:10.318Z,6.17
2023-02-12T06:24:38.634Z,6.17
2023-02-12T06:27:06.979Z,6.18
2023-02-12T06:29:35.300Z,6.18
2023-02-12T06:32:03.887Z,6.20
2023-02-12T06:34:32.376Z,6.21
2023-02-12T06:37:00.810Z,6.22
2023-02-12T06:39:29.125Z,6.24
2023-02-12T06:41:57.649Z,6.25
2023-02-12T06:44:25.943Z,6.28
2023-02-12T06:46:54.335Z,6.28
2023-02-12T06:49:22.672Z,6.29
2023-02-12T06:51:50.965Z,6.31
2023-02-12T06:54:19.389Z,6.35
2023-02-12T06:56:47.783Z,6.38
2023-02-12T06:59:17.173Z,6.40
2023-02-12T07:01:45.579Z,6.44
2023-02-12T07:04:14.273Z,6.45
2023-02-12T07:06:44.874Z,6.48
2023-02-12T07:09:17.287Z,6.52
2023-02-12T07:11:49.662Z,6.55
2023-02-12T07:14:18.718Z,6.60
2023-02-12T07:16:49.708Z,6.63
2023-02-12T07:19:18.327Z,6.66
2023-02-12T07:21:48.062Z,6.70
2023-02-12T07:24:21.087Z,6.72
2023-02-12T07:26:54.380Z,6.74
2023-02-12T07:29:22.686Z,6.76
2023-02-12T07:31:53.327Z,6.78
2023-02-12T07:34:23.051Z,6.80
2023-02-12T07:36:51.370Z,6.82
2023-02-12T07:39:19.821Z,6.87
2023-02-12T07:41:51.964Z,6.90
2023-02-12T07:44:21.425Z,6.93
2023-02-12T07:46:50.871Z,6.97
2023-02-12T07:49:22.320Z,7.00
2023-02-12T07:51:50.786Z,7.03
2023-02-12T07:54:21.967Z,7.07
2023-02-12T07:56:50.984Z,7.11
2023-02-12T07:59:22.713Z,7.14
2023-02-12T08:01:54.866Z,7.17
2023-02-12T08:04:27.066Z,7.19
2023-02-12T08:07:07.113Z,7.25
2023-02-12T08:09:35.466Z,7.31
2023-02-12T08:12:12.327Z,7.35
2023-02-12T08:14:42.171Z,7.39
2023-02-12T08:17:11.464Z,7.43
2023-02-12T08:19:39.847Z,7.48
2023-02-12T08:22:08.253Z,7.53
2023-02-12T08:24:36.606Z,7.59
2023-02-12T08:27:05.554Z,7.65
2023-02-12T08:29:33.901Z,7.69
2023-02-12T08:32:03.935Z,7.70
2023-02-12T08:34:35.424Z,7.71
2023-02-12T08:37:06.781Z,7.72
2023-02-12T08:39:35.292Z,7.71
2023-02-12T08:42:03.916Z,7.69
2023-02-12T08:44:33.802Z,7.69
2023-02-12T08:47:02.264Z,7.68
2023-02-12T08:49:30.915Z,7.70
2023-02-12T08:52:01.724Z,7.71
2023-02-12T08:54:32.325Z,7.72
2023-02-12T08:57:03.295Z,7.72
2023-02-12T08:59:31.927Z,7.76
2023-02-12T09:02:01.129Z,7.80
2023-02-12T09:04:29.949Z,7.83
2023-02-12T09:06:58.455Z,7.90
2023-02-12T09:09:27.381Z,7.95
2023-02-12T09:11:56.071Z,8.00
2023-02-12T09:14:25.142Z,8.04
2023-02-12T09:16:54.683Z,8.06
2023-02-12T09:19:23.465Z,8.12
2023-02-12T09:21:57.054Z,8.17
2023-02-12T09:24:27.741Z,8.24
2023-02-12T09:26:56.882Z,8.28
2023-02-12T09:29:25.392Z,8.27
2023-02-12T09:31:54.098Z,8.28
2023-02-12T09:34:22.728Z,8.37
2023-02-12T09:36:51.120Z,8.51
2023-02-12T09:39:19.534Z,8.67
2023-02-12T09:42:12.384Z,8.80
2023-02-12T09:44:50.055Z,8.93
2023-02-12T09:47:40.726Z,9.07
2023-02-12T09:50:39.061Z,9.15
2023-02-12T09:53:14.788Z,9.23
2023-02-12T09:55:43.194Z,9.25
2023-02-12T10:02:19.956Z,9.34
2023-02-12T10:05:01.124Z,9.37
2023-02-12T10:08:03.667Z,9.36
2023-02-12T10:11:06.182Z,9.35
2023-02-12T10:14:16.068Z,9.34
2023-02-12T10:16:54.403Z,9.41
2023-02-12T10:19:52.807Z,9.56
2023-02-12T10:23:03.371Z,9.68
2023-02-12T10:25:54.494Z,9.82
2023-02-12T10:28:38.394Z,9.95
2023-02-12T10:34:27.066Z,10.20
2023-02-12T10:37:05.931Z,10.21
2023-02-12T10:42:46.196Z,10.34
2023-02-12T10:45:19.102Z,10.73
2023-02-12T10:47:51.844Z,10.99
2023-02-12T10:50:37.652Z,11.27
2023-02-12T10:53:06.098Z,11.41
2023-02-12T10:55:39.344Z,11.42
2023-02-12T10:58:25.334Z,11.31
2023-02-12T11:01:03.035Z,11.18
2023-02-12T11:03:34.464Z,11.02
2023-02-12T11:06:19.712Z,10.88
2023-02-12T11:08:49.037Z,10.68
2023-02-12T11:11:28.238Z,10.49
2023-02-12T11:14:04.180Z,10.34
2023-02-12T11:16:51.109Z,10.20
2023-02-12T11:19:29.499Z,10.08
2023-02-12T11:22:14.586Z,9.98
2023-02-12T11:24:43.039Z,9.83
2023-02-12T11:27:25.261Z,9.72
2023-02-12T11:30:21.788Z,9.66
2023-02-12T11:32:51.694Z,9.63
2023-02-12T11:35:25.911Z,9.63
2023-02-12T11:37:58.368Z,9.66
2023-02-12T11:40:31.371Z,9.68
2023-02-12T11:43:06.044Z,9.69
2023-02-12T11:45:44.853Z,9.79
2023-02-12T11:48:34.779Z,9.88
2023-02-12T11:51:09.220Z,10.25
2023-02-12T11:53:49.839Z,10.62
2023-02-12T11:56:18.425Z,10.75
2023-02-12T11:58:49.290Z,10.70
2023-02-12T12:01:31.248Z,10.67
2023-02-12T12:04:13.927Z,10.86
2023-02-12T12:07:11.780Z,11.18
2023-02-12T12:09:51.646Z,11.58
2023-02-12T12:12:45.832Z,11.74
2023-02-12T12:15:54.021Z,11.69
2023-02-12T12:18:57.536Z,11.51
2023-02-12T12:21:40.102Z,11.70
2023-02-12T12:24:44.396Z,11.99
2023-02-12T12:27:43.480Z,12.07
2023-02-12T12:30:36.683Z,11.91
2023-02-12T12:33:16.524Z,11.76
2023-02-12T12:36:01.592Z,11.75
2023-02-12T12:39:04.444Z,11.91
2023-02-12T12:42:01.001Z,12.21
2023-02-12T12:44:59.007Z,12.51
2023-02-12T12:47:32.510Z,12.71
2023-02-12T12:50:23.802Z,12.88
2023-02-12T12:53:19.881Z,13.25
2023-02-12T12:56:00.115Z,13.64
2023-02-12T12:58:45.369Z,13.59
2023-02-12T13:01:48.901Z,13.42
2023-02-12T13:04:29.324Z,13.14
2023-02-12T13:07:52.247Z,12.87
2023-02-12T13:10:51.006Z,12.55
2023-02-12T13:13:26.461Z,12.23
2023-02-12T13:16:25.938Z,11.99
2023-02-12T13:19:32.423Z,11.72
2023-02-12T13:22:22.276Z,11.53
2023-02-12T13:25:31.773Z,11.50
2023-02-12T13:28:03.054Z,11.63
2023-02-12T13:30:45.248Z,11.71
2023-02-12T13:33:42.616Z,11.66
2023-02-12T13:36:14.783Z,11.52
2023-02-12T13:38:59.670Z,11.41
2023-02-12T13:41:29.795Z,11.20
2023-02-12T13:44:14.551Z,10.97
2023-02-12T13:47:01.504Z,10.71
2023-02-12T13:49:48.076Z,10.45
2023-02-12T13:52:48.601Z,10.27
2023-02-12T13:55:48.486Z,10.10
2023-02-12T13:58:35.092Z,10.00
2023-02-12T14:01:37.542Z,9.91
2023-02-12T14:04:33.097Z,9.79
2023-02-12T14:07:06.710Z,9.70
2023-02-12T14:09:46.675Z,9.64
2023-02-12T14:12:43.046Z,9.59
2023-02-12T14:15:29.798Z,9.52
2023-02-12T14:18:27.558Z,9.48
2023-02-12T14:21:11.130Z,9.45
2023-02-12T14:23:42.271Z,9.46
2023-02-12T14:26:20.260Z,9.46
2023-02-12T14:29:06.811Z,9.46
2023-02-12T14:31:38.198Z,9.45
2023-02-12T14:34:06.803Z,9.49
2023-02-12T14:36:39.245Z,9.53
2023-02-12T14:39:20.155Z,9.59
2023-02-12T14:42:11.748Z,9.62
2023-02-12T14:45:31.850Z,9.65
2023-02-12T14:48:00.911Z,9.65
2023-02-12T14:50:39.907Z,9.60
2023-02-12T14:53:35.177Z,9.53
2023-02-12T14:56:05.427Z,9.45
2023-02-12T14:58:36.422Z,9.37
2023-02-12T15:01:06.817Z,9.30
2023-02-12T15:03:59.122Z,9.24
2023-02-12T15:06:43.078Z,9.18
2023-02-12T15:09:37.587Z,9.14
2023-02-12T15:12:19.598Z,9.10
2023-02-12T15:15:19.617Z,9.05
2023-02-12T15:18:00.271Z,8.99
2023-02-12T15:20:50.740Z,8.95
2023-02-12T15:23:44.388Z,8.92
2023-02-12T15:26:22.960Z,8.93
2023-02-12T15:28:55.984Z,9.01
2023-02-12T15:31:31.397Z,9.03
2023-02-12T15:34:07.347Z,9.00
2023-02-12T15:36:38.220Z,8.98
2023-02-12T15:39:09.258Z,8.94
2023-02-12T15:41:40.445Z,8.89
2023-02-12T15:44:27.979Z,8.84
2023-02-12T15:47:17.590Z,8.79
2023-02-12T15:49:54.605Z,8.74
2023-02-12T15:52:34.831Z,8.69
2023-02-12T15:55:06.158Z,8.65
2023-02-12T15:57:35.720Z,8.61
2023-02-12T16:00:15.127Z,8.58
2023-02-12T16:02:43.636Z,8.53
2023-02-12T16:05:15.632Z,8.49
2023-02-12T16:07:46.694Z,8.45
2023-02-12T16:10:21.058Z,8.42
2023-02-12T16:12:55.994Z,8.40
2023-02-12T16:15:36.943Z,8.37
2023-02-12T16:18:07.299Z,8.35
2023-02-12T16:20:39.561Z,8.32
2023-02-12T16:23:10.820Z,8.29
2023-02-12T16:25:41.798Z,8.27
2023-02-12T16:28:30.610Z,8.25
2023-02-12T16:31:15.701Z,8.21
2023-02-12T16:33:53.130Z,8.16
2023-02-12T16:36:24.508Z,8.10
2023-02-12T16:38:55.123Z,8.05
2023-02-12T16:41:32.554Z,8.01
2023-02-12T16:44:00.964Z,7.96
2023-02-12T16:46:50.817Z,7.91
2023-02-12T16:49:25.982Z,7.86
2023-02-12T16:52:28.334Z,7.81
2023-02-12T16:55:00.751Z,7.76
2023-02-12T16:57:29.208Z,7.73
2023-02-12T16:59:57.790Z,7.69
2023-02-12T17:02:26.562Z,7.64
2023-02-12T17:04:56.807Z,7.61
2023-02-12T17:07:29.144Z,7.57
2023-02-12T17:10:02.646Z,7.54
2023-02-12T17:12:31.201Z,7.51
2023-02-12T17:15:05.033Z,7.49
2023-02-12T17:28:01.702Z,7.37
2023-02-12T17:30:38.103Z,7.33
2023-02-12T17:33:52.533Z,7.32
2023-02-12T17:36:33.771Z,7.25
2023-02-12T17:39:06.572Z,7.22
2023-02-12T17:41:41.512Z,7.18
2023-02-12T17:44:15.579Z,7.15
2023-02-12T17:57:33.778Z,7.02
2023-02-12T18:00:07.041Z,6.98
2023-02-12T18:02:36.036Z,6.96
2023-02-12T18:05:04.978Z,6.92
2023-02-12T18:07:35.771Z,6.89
2023-02-12T18:10:24.297Z,6.86
2023-02-12T18:12:58.000Z,6.83
2023-02-12T18:15:36.690Z,6.80
2023-02-12T18:18:10.020Z,6.77
2023-02-12T18:20:50.327Z,6.74
2023-02-12T18:23:49.740Z,6.70
2023-02-12T18:26:24.334Z,6.65
2023-02-12T18:29:01.302Z,6.63
2023-02-12T18:31:36.153Z,6.61
2023-02-12T18:34:33.988Z,6.59
2023-02-12T18:37:09.821Z,6.55
2023-02-12T18:39:46.796Z,6.53
2023-02-12T18:42:40.927Z,6.51
2023-02-12T18:45:16.769Z,6.47
2023-02-12T18:47:55.843Z,6.45
2023-02-12T18:50:30.355Z,6.42
2023-02-12T18:53:01.027Z,6.40
2023-02-12T18:55:48.555Z,6.38
2023-02-12T18:58:18.624Z,6.36
2023-02-12T19:00:56.968Z,6.34
2023-02-12T19:03:27.541Z,6.33
2023-02-12T19:06:04.455Z,6.32
2023-02-12T19:08:33.530Z,6.30
2023-02-12T19:11:07.550Z,6.28
2023-02-12T19:13:36.958Z,6.26
2023-02-12T19:16:27.845Z,6.24
2023-02-12T19:19:02.977Z,6.23
2023-02-12T19:21:36.597Z,6.22
2023-02-12T19:24:08.452Z,6.21
2023-02-12T19:26:37.521Z,6.21
2023-02-12T19:29:11.680Z,6.20
2023-02-12T19:31:49.928Z,6.19
2023-02-12T19:34:41.936Z,6.20
2023-02-12T19:37:28.431Z,6.20
2023-02-12T19:40:03.632Z,6.19
2023-02-12T19:42:38.504Z,6.18
2023-02-12T19:45:17.195Z,6.16
2023-02-12T19:47:53.226Z,6.16
2023-02-12T19:50:26.849Z,6.14
2023-02-12T19:52:56.437Z,6.13
2023-02-12T19:55:25.257Z,6.14
2023-02-12T19:57:54.507Z,6.14
2023-02-12T20:00:29.147Z,6.15
2023-02-12T20:03:06.782Z,6.16
2023-02-12T20:05:51.550Z,6.14
2023-02-12T20:08:25.161Z,6.13
2023-02-12T20:10:58.620Z,6.12
2023-02-12T20:13:29.223Z,6.11
2023-02-12T20:16:21.718Z,6.10
2023-02-12T20:19:00.104Z,6.09
2023-02-12T20:21:30.031Z,6.08
2023-02-12T20:24:06.063Z,6.06
2023-02-12T20:26:51.084Z,6.05
2023-02-12T20:29:25.615Z,6.03
2023-02-12T20:32:01.521Z,6.01
2023-02-12T20:34:32.929Z,5.98
2023-02-12T20:37:06.655Z,5.96
2023-02-12T20:39:37.139Z,5.94
2023-02-12T20:42:08.106Z,5.92
2023-02-12T20:44:37.505Z,5.88
2023-02-12T20:47:06.039Z,5.86
2023-02-12T20:49:35.752Z,5.83
2023-02-12T20:52:06.645Z,5.80
2023-02-12T20:54:35.214Z,5.76
2023-02-12T20:57:06.861Z,5.72
2023-02-12T20:59:35.380Z,5.69
2023-02-12T21:02:04.093Z,5.65
2023-02-12T21:04:32.944Z,5.61
2023-02-12T21:07:01.803Z,5.59
2023-02-12T21:09:30.415Z,5.57
2023-02-12T21:11:59.976Z,5.56
2023-02-12T21:14:29.922Z,5.55
2023-02-12T21:16:58.319Z,5.53
2023-02-12T21:19:35.028Z,5.52
2023-02-12T21:22:12.219Z,5.51
2023-02-12T21:24:41.424Z,5.50
2023-02-12T21:27:13.099Z,5.49
2023-02-12T21:29:41.518Z,5.49
2023-02-12T21:32:10.104Z,5.49
2023-02-12T21:34:39.674Z,5.50
2023-02-12T21:37:08.310Z,5.50
2023-02-12T21:39:37.644Z,5.50
2023-02-12T21:42:08.097Z,5.50
2023-02-12T21:44:37.029Z,5.51
2023-02-12T21:47:07.339Z,5.51
2023-02-12T21:49:35.879Z,5.51
2023-02-12T21:52:06.738Z,5.53
2023-02-12T21:54:35.659Z,5.54
2023-02-12T21:57:04.229Z,5.55
2023-02-12T21:59:32.750Z,5.55
2023-02-12T22:02:01.824Z,5.55
2023-02-12T22:04:34.157Z,5.55
2023-02-12T22:07:03.627Z,5.56
2023-02-12T22:09:32.644Z,5.56
2023-02-12T22:12:01.211Z,5.59
2023-02-12T22:14:29.858Z,5.60
2023-02-12T22:16:58.988Z,5.60
2023-02-12T22:19:27.505Z,5.60
2023-02-12T22:21:56.015Z,5.61
2023-02-12T22:24:24.466Z,5.60
2023-02-12T22:26:57.595Z,5.60
2023-02-12T22:29:26.416Z,5.60
2023-02-12T22:31:55.298Z,5.60
2023-02-12T22:34:24.026Z,5.60
2023-02-12T22:36:55.158Z,5.60
2023-02-12T22:39:23.850Z,5.61
2023-02-12T22:41:52.232Z,5.60
2023-02-12T22:44:49.027Z,5.64
2023-02-12T22:47:17.428Z,5.63
2023-02-12T22:49:45.886Z,5.62
2023-02-12T22:52:14.348Z,5.59
2023-02-12T22:54:42.771Z,5.58
2023-02-12T22:57:11.545Z,5.57
2023-02-12T22:59:39.871Z,5.58
2023-02-12T23:02:08.615Z,5.58
2023-02-12T23:04:37.128Z,5.58
2023-02-12T23:07:05.552Z,5.57
2023-02-12T23:09:33.983Z,5.56
2023-02-12T23:12:07.578Z,5.55
2023-02-12T23:14:36.212Z,5.53
2023-02-12T23:17:04.746Z,5.52
2023-02-12T23:19:33.172Z,5.51
2023-02-12T23:22:02.241Z,5.50
2023-02-12T23:24:31.075Z,5.48
2023-02-12T23:26:59.464Z,5.45
2023-02-12T23:29:29.948Z,5.43
2023-02-12T23:31:59.366Z,5.41
2023-02-12T23:34:32.271Z,5.39
2023-02-12T23:37:04.336Z,5.36
2023-02-12T23:39:33.437Z,5.34
2023-02-12T23:42:04.978Z,5.33
2023-02-12T23:44:33.560Z,5.32
2023-02-12T23:47:02.129Z,5.31
2023-02-12T23:49:30.452Z,5.29
2023-02-12T23:51:58.823Z,5.28
2023-02-12T23:54:27.121Z,5.28
2023-02-12T23:56:55.466Z,5.28
2023-02-12T23:59:26.756Z,5.28
